Time;durP1;ratioP1;P1;durP2;ratioP2;P2;SDS_P1;SDS_P2;PMS_P1;PMS_P2;Temp;Humidity;BMP_temperature;BMP_pressure;BME280_temperature;BME280_humidity;BME280_pressure;Samples;Min_cycle;Max_cycle;Signal;HPM_P1;HPM_P2
2023/07/10 02:43:52;;;;;;;23.20;17.83;;;26.00;94.40;;;;;;5964721;23;20024;31
2023/07/10 02:46:18;;;;;;;24.13;18.45;;;25.90;94.60;;;;;;4856983;29;20410;-78
2023/07/10 02:48:44;;;;;;;19.57;17.60;;;25.90;94.50;;;;;;4843006;29;20116;-78
2023/07/10 02:51:10;;;;;;;23.57;17.70;;;25.90;94.60;;;;;;4859937;29;20529;-78
2023/07/10 02:53:35;;;;;;;23.03;18.77;;;25.90;94.70;;;;;;4842782;29;20562;-78
2023/07/10 02:56:01;;;;;;;22.40;17.73;;;25.90;94.80;;;;;;4833986;29;20036;-78
2023/07/10 02:58:27;;;;;;;30.93;18.67;;;25.80;94.80;;;;;;4885016;23;20038;-82
2023/07/10 03:01:01;;;;;;;19.13;17.13;;;25.80;94.90;;;;;;4880624;29;20044;-83
2023/07/10 03:03:27;;;;;;;21.35;19.05;;;25.80;94.90;;;;;;4865552;29;20028;-83
2023/07/10 03:06:01;;;;;;;22.50;18.13;;;25.70;95.00;;;;;;4881312;29;20032;-83
2023/07/10 03:08:28;;;;;;;22.90;17.50;;;25.70;94.90;;;;;;4880970;29;20040;-83
2023/07/10 03:10:59;;;;;;;;;;;25.70;95.20;;;;;;4898217;29;20520;-83
2023/07/10 03:13:25;;;;;;;21.30;19.08;;;25.70;94.70;;;;;;4878994;29;20013;-83
2023/07/10 03:16:06;;;;;;;19.90;17.80;;;25.70;95.20;;;;;;4872265;29;20457;-83
2023/07/10 03:18:36;;;;;;;21.58;19.27;;;25.70;95.20;;;;;;4867510;29;20598;-82
2023/07/10 03:21:02;;;;;;;20.55;17.60;;;25.60;95.20;;;;;;4864997;29;20141;-83
2023/07/10 03:23:28;;;;;;;21.20;19.00;;;25.70;95.30;;;;;;4864617;29;20033;-83
2023/07/10 03:25:54;;;;;;;20.85;18.27;;;25.60;95.30;;;;;;4859632;29;20036;-82
2023/07/10 03:28:20;;;;;;;20.15;17.83;;;25.70;95.30;;;;;;4882021;29;20080;-83
2023/07/10 03:30:46;;;;;;;22.53;18.20;;;25.60;95.10;;;;;;4881902;29;20040;-83
2023/07/10 03:33:13;;;;;;;27.40;17.67;;;25.60;95.20;;;;;;4899167;29;20052;-83
2023/07/10 03:35:40;;;;;;;21.25;17.77;;;25.60;95.30;;;;;;4882815;29;20051;-83
2023/07/10 03:38:06;;;;;;;29.25;19.27;;;25.60;95.40;;;;;;4882750;29;20523;-83
2023/07/10 03:40:32;;;;;;;22.90;17.77;;;25.60;95.50;;;;;;4900398;29;20128;-82
2023/07/10 03:42:57;;;;;;;22.93;19.03;;;25.60;95.40;;;;;;4899858;29;20056;-83
2023/07/10 03:45:23;;;;;;;21.97;17.30;;;25.60;95.40;;;;;;4882397;29;20060;-83
2023/07/10 03:47:49;;;;;;;21.30;17.80;;;25.50;95.50;;;;;;4881936;29;20030;-82
2023/07/10 03:50:15;;;;;;;21.30;19.10;;;25.50;95.50;;;;;;4882388;29;20032;-83
2023/07/10 03:52:41;;;;;;;32.90;18.57;;;25.50;95.60;;;;;;4876699;29;20029;-82
2023/07/10 03:55:07;;;;;;;33.43;19.20;;;25.50;95.70;;;;;;4876635;29;20037;-84
2023/07/10 03:57:33;;;;;;;22.42;19.33;;;25.50;95.70;;;;;;4896746;29;20051;-84
2023/07/10 03:59:59;;;;;;;25.07;19.73;;;25.50;95.80;;;;;;4897487;29;20032;-84
2023/07/10 04:02:24;;;;;;;24.23;18.57;;;25.50;95.80;;;;;;4864319;29;20084;-84
2023/07/10 04:04:50;;;;;;;21.40;19.00;;;25.50;95.90;;;;;;4879784;29;20060;-84
2023/07/10 04:07:17;;;;;;;23.23;18.80;;;25.50;95.90;;;;;;4879574;29;20080;-84
2023/07/10 04:09:43;;;;;;;24.52;17.75;;;25.40;95.90;;;;;;4896528;29;20588;-84
2023/07/10 04:12:09;;;;;;;21.37;17.67;;;25.40;96.00;;;;;;4864279;29;20160;-84
2023/07/10 04:14:37;;;;;;;19.83;17.77;;;25.30;96.30;;;;;;4879773;29;20056;-84
2023/07/10 04:17:04;;;;;;;21.05;18.73;;;25.20;96.50;;;;;;4879490;29;20501;-84
2023/07/10 04:19:30;;;;;;;21.77;18.50;;;25.20;96.50;;;;;;4879616;29;20398;-84
2023/07/10 04:21:56;;;;;;;24.23;19.10;;;25.20;96.70;;;;;;4899031;29;20036;-84
2023/07/10 04:24:21;;;;;;;20.97;17.73;;;25.20;96.90;;;;;;4879554;29;20041;-84
2023/07/10 04:26:47;;;;;;;19.87;17.70;;;25.20;96.80;;;;;;4896248;29;20032;-84
2023/07/10 04:29:16;;;;;;;22.63;17.93;;;25.30;96.70;;;;;;4896690;29;20061;-84
2023/07/10 04:31:41;;;;;;;21.58;19.33;;;25.30;96.70;;;;;;4879605;29;20033;-84
2023/07/10 04:34:07;;;;;;;27.03;20.23;;;25.30;96.70;;;;;;4879451;29;20032;-84
2023/07/10 04:36:35;;;;;;;22.98;19.77;;;25.20;96.80;;;;;;4879447;29;20047;-84
2023/07/10 04:39:00;;;;;;;29.05;20.10;;;25.20;96.90;;;;;;4896385;29;20037;-84
2023/07/10 04:41:26;;;;;;;32.67;21.93;;;25.20;97.00;;;;;;4879404;29;20434;-84
2023/07/10 04:43:52;;;;;;;25.80;22.93;;;25.20;97.30;;;;;;4896339;29;20084;-84
2023/07/10 04:46:19;;;;;;;25.60;22.93;;;25.10;97.60;;;;;;4896327;29;20111;-84
2023/07/10 04:48:46;;;;;;;24.70;21.30;;;25.10;97.90;;;;;;4866355;29;20110;-84
2023/07/10 04:51:13;;;;;;;27.60;23.25;;;25.10;98.00;;;;;;4882922;29;20039;-84
2023/07/10 04:53:38;;;;;;;26.40;23.00;;;25.20;97.90;;;;;;4882807;29;20032;-84
2023/07/10 04:56:06;;;;;;;26.80;23.03;;;25.20;97.90;;;;;;4867315;29;20036;-84
2023/07/10 04:58:55;;;;;;;24.55;22.02;;;25.40;97.70;;;;;;4866920;29;20028;-83
2023/07/10 05:01:26;;;;;;;25.23;22.23;;;25.40;97.80;;;;;;4882676;29;20096;-84
2023/07/10 05:03:52;;;;;;;25.40;22.70;;;25.40;97.80;;;;;;4882982;29;20028;-83
2023/07/10 05:06:19;;;;;;;28.33;23.77;;;25.40;97.90;;;;;;4882637;29;20577;-84
2023/07/10 05:08:45;;;;;;;;;;;25.40;97.90;;;;;;4883125;29;20435;-83
2023/07/10 05:11:12;;;;;;;25.77;23.00;;;25.40;98.10;;;;;;4882609;29;19937;-84
2023/07/10 05:13:38;;;;;;;;;;;25.40;97.90;;;;;;4883092;29;20494;-83
2023/07/10 05:16:04;;;;;;;32.70;22.65;;;25.60;98.10;;;;;;4899187;29;19954;-83
2023/07/10 05:18:30;;;;;;;30.38;24.25;;;25.60;97.80;;;;;;4882103;29;20036;-84
2023/07/10 05:20:58;;;;;;;26.92;24.20;;;25.70;98.20;;;;;;4882361;29;20401;-84
2023/07/10 05:23:24;;;;;;;25.60;22.70;;;25.70;98.50;;;;;;4882365;29;20025;-84
2023/07/10 05:26:11;;;;;;;30.92;22.23;;;25.70;98.50;;;;;;4882465;29;20102;-84
2023/07/10 05:28:38;;;;;;;24.08;21.58;;;25.80;98.30;;;;;;4882016;29;20514;-84
2023/07/10 05:31:06;;;;;;;27.73;22.15;;;25.90;98.10;;;;;;4882244;29;20033;-84
2023/07/10 05:33:33;;;;;;;23.45;20.95;;;25.90;98.40;;;;;;4882169;29;20036;-84
2023/07/10 05:36:02;;;;;;;22.80;19.90;;;25.90;98.30;;;;;;4882157;29;20084;-84
2023/07/10 05:38:30;;;;;;;24.33;20.58;;;25.90;98.40;;;;;;4882495;29;20505;-84
2023/07/10 05:40:57;;;;;;;22.27;19.95;;;25.90;98.60;;;;;;4883267;29;20087;-84
2023/07/10 05:43:23;;;;;;;25.73;20.90;;;25.90;98.40;;;;;;4882036;29;20028;-84
2023/07/10 05:45:50;;;;;;;23.02;20.58;;;25.90;98.20;;;;;;4882124;29;20029;-83
2023/07/10 05:48:16;;;;;;;25.60;19.42;;;26.00;98.20;;;;;;4881714;29;20123;-83
2023/07/10 05:50:49;;;;;;;22.63;18.80;;;26.10;98.10;;;;;;4881860;29;20173;-84
2023/07/10 05:53:16;;;;;;;18.65;16.75;;;26.20;97.90;;;;;;4881881;29;20112;-84
2023/07/10 05:55:47;;;;;;;21.95;18.05;;;26.30;97.30;;;;;;4881791;29;20047;-84
2023/07/10 05:58:14;;;;;;;21.05;18.85;;;26.30;97.20;;;;;;4881737;29;20413;-84
2023/07/10 06:00:40;;;;;;;;;;;26.40;97.00;;;;;;4881207;29;20409;-84
2023/07/10 06:03:06;;;;;;;21.48;16.20;;;26.50;96.40;;;;;;4881682;29;19914;-84
2023/07/10 06:05:32;;;;;;;17.77;15.80;;;26.60;96.30;;;;;;4866183;29;20131;-84
2023/07/10 06:07:58;;;;;;;17.33;15.57;;;26.60;95.80;;;;;;4881638;29;20269;-84
2023/07/10 06:10:24;;;;;;;19.47;16.37;;;26.60;95.50;;;;;;4881495;29;20029;-84
2023/07/10 06:12:50;;;;;;;23.00;17.43;;;26.70;95.40;;;;;;4898392;29;20273;-84
2023/07/10 06:15:16;;;;;;;18.33;16.27;;;26.80;95.30;;;;;;4866055;29;20127;-84
2023/07/10 06:17:42;;;;;;;26.10;16.77;;;26.80;95.20;;;;;;4897985;29;20040;-84
2023/07/10 06:20:08;;;;;;;17.73;15.85;;;26.80;94.90;;;;;;4865711;29;20433;-84
2023/07/10 06:22:34;;;;;;;19.92;17.80;;;26.80;94.80;;;;;;4881151;29;20028;-84
2023/07/10 06:24:59;;;;;;;16.90;15.13;;;26.80;94.70;;;;;;4898077;29;20079;-84
2023/07/10 06:27:25;;;;;;;18.27;16.13;;;26.90;94.60;;;;;;4881091;29;20028;-84
2023/07/10 06:29:51;;;;;;;18.83;16.93;;;27.00;94.70;;;;;;4881079;29;20280;-84
2023/07/10 06:32:18;;;;;;;21.27;18.92;;;27.00;94.80;;;;;;4897985;29;20033;-84
2023/07/10 06:34:44;;;;;;;19.85;17.63;;;27.00;94.70;;;;;;4881115;29;20060;-84
2023/07/10 06:37:10;;;;;;;21.97;16.67;;;27.10;94.30;;;;;;4880978;29;20113;-84
2023/07/10 06:39:36;;;;;;;22.20;16.20;;;27.20;94.40;;;;;;4881031;29;20442;-84
2023/07/10 06:42:02;;;;;;;31.23;18.40;;;27.20;94.50;;;;;;4880692;29;20029;-84
2023/07/10 06:44:31;;;;;;;21.83;19.35;;;27.30;94.30;;;;;;4881026;29;20047;-84
2023/07/10 06:46:57;;;;;;;21.27;19.00;;;27.40;94.10;;;;;;4880782;29;20016;-84
2023/07/10 06:49:23;;;;;;;21.70;18.33;;;27.40;94.10;;;;;;4880662;29;20033;-84
2023/07/10 06:51:49;;;;;;;22.37;18.13;;;27.50;94.20;;;;;;4881624;29;20085;-84
2023/07/10 06:54:14;;;;;;;20.60;18.43;;;27.50;93.90;;;;;;4880972;29;20036;-84
2023/07/10 06:56:40;;;;;;;24.53;19.20;;;27.50;93.90;;;;;;4880549;29;20041;-84
2023/07/10 06:59:06;;;;;;;20.00;17.87;;;27.60;93.70;;;;;;4897198;29;20044;-84
2023/07/10 07:01:32;;;;;;;21.17;19.07;;;27.50;93.60;;;;;;4880908;29;20077;-84
2023/07/10 07:03:58;;;;;;;20.37;17.23;;;27.50;93.60;;;;;;4897470;29;20454;-84
2023/07/10 07:06:24;;;;;;;19.33;17.40;;;27.50;93.40;;;;;;4880669;29;20035;-84
2023/07/10 07:08:52;;;;;;;29.97;21.33;;;27.60;93.40;;;;;;4880669;29;20509;-84
2023/07/10 07:11:18;;;;;;;22.05;19.30;;;27.60;93.60;;;;;;4864157;29;20052;-84
2023/07/10 07:13:44;;;;;;;17.98;16.20;;;27.70;93.70;;;;;;4880343;29;20032;-84
2023/07/10 07:16:10;;;;;;;29.57;17.93;;;27.80;93.40;;;;;;4880364;29;20524;-84
2023/07/10 07:18:36;;;;;;;22.30;17.75;;;27.90;93.40;;;;;;4880542;29;20032;-84
2023/07/10 07:21:02;;;;;;;22.20;18.10;;;28.00;93.40;;;;;;4880176;29;20024;-84
2023/07/10 07:23:28;;;;;;;21.80;17.50;;;28.00;92.60;;;;;;4880412;29;20036;-84
2023/07/10 07:25:55;;;;;;;19.45;16.60;;;28.00;92.40;;;;;;4880312;29;20035;-84
2023/07/10 07:28:22;;;;;;;22.48;16.40;;;28.10;92.70;;;;;;4879916;29;20033;-84
2023/07/10 07:30:48;;;;;;;19.85;16.55;;;28.20;93.00;;;;;;4880306;29;20039;-84
2023/07/10 07:33:15;;;;;;;21.77;16.88;;;28.30;92.80;;;;;;4880205;29;20036;-84
2023/07/10 07:35:41;;;;;;;19.13;16.27;;;28.40;92.70;;;;;;4880187;29;20037;-84
2023/07/10 07:38:06;;;;;;;17.40;15.70;;;28.40;92.40;;;;;;4897037;29;20379;-84
2023/07/10 07:40:32;;;;;;;24.77;16.23;;;28.50;92.70;;;;;;4865558;29;20048;-83
2023/07/10 07:42:58;;;;;;;21.25;17.30;;;28.50;92.40;;;;;;4898234;29;20025;-84
2023/07/10 07:45:24;;;;;;;19.27;17.20;;;28.50;91.70;;;;;;4898151;29;20031;-84
2023/07/10 07:47:50;;;;;;;17.60;15.83;;;28.60;91.50;;;;;;4866090;29;20036;-84
2023/07/10 07:50:16;;;;;;;16.92;15.23;;;28.60;91.70;;;;;;4881289;29;20036;-83
2023/07/10 07:52:42;;;;;;;13.40;12.00;;;28.70;91.50;;;;;;4881615;29;20117;-84
2023/07/10 07:55:08;;;;;;;15.43;11.10;;;28.70;90.40;;;;;;4881049;29;20545;-84
2023/07/10 07:57:35;;;;;;;16.17;10.75;;;28.80;90.00;;;;;;4881277;29;20040;-84
2023/07/10 08:00:01;;;;;;;13.73;12.27;;;28.90;88.30;;;;;;4881287;29;20041;-84
2023/07/10 08:02:27;;;;;;;16.65;11.48;;;29.00;88.20;;;;;;4881364;29;20544;-84
2023/07/10 08:04:53;;;;;;;15.57;12.50;;;29.10;87.00;;;;;;4881261;29;20068;-84
2023/07/10 08:07:19;;;;;;;13.52;11.07;;;29.20;86.40;;;;;;4881388;29;20051;-84
2023/07/10 08:09:44;;;;;;;17.23;11.93;;;29.20;86.20;;;;;;4881246;29;20441;-84
2023/07/10 08:12:10;;;;;;;17.53;12.03;;;29.30;85.40;;;;;;4897866;29;20032;-83
2023/07/10 08:14:36;;;;;;;84.47;22.90;;;29.30;85.50;;;;;;4881678;29;20056;-83
2023/07/10 08:17:02;;;;;;;53.92;16.00;;;29.40;87.00;;;;;;4881661;29;20036;-84
2023/07/10 08:19:28;;;;;;;35.00;13.88;;;29.20;88.90;;;;;;4881173;29;20498;-84
2023/07/10 08:21:57;;;;;;;194.90;37.23;;;29.00;89.60;;;;;;4881307;29;20039;-84
2023/07/10 08:24:24;;;;;;;19.88;13.10;;;28.80;92.90;;;;;;4884914;29;20049;-84
2023/07/10 08:26:50;;;;;;;13.63;11.63;;;28.70;91.60;;;;;;4901654;29;20036;-83
2023/07/10 08:29:31;;;;;;;14.23;12.20;;;28.80;90.90;;;;;;4868786;29;20033;-83
2023/07/10 08:31:59;;;;;;;14.35;12.25;;;29.00;91.00;;;;;;4884218;29;20127;-83
2023/07/10 08:34:27;;;;;;;16.92;13.02;;;29.10;90.10;;;;;;4868397;29;20080;-83
2023/07/10 08:36:53;;;;;;;17.02;13.02;;;29.30;90.10;;;;;;4868640;29;20063;-83
2023/07/10 08:39:23;;;;;;;19.77;13.45;;;29.40;89.00;;;;;;4884381;29;20044;-83
2023/07/10 08:42:00;;;;;;;16.63;12.68;;;29.60;87.50;;;;;;4882963;29;20063;-83
2023/07/10 08:44:37;;;;;;;16.43;13.13;;;29.70;87.20;;;;;;4882977;29;20033;-84
2023/07/10 08:47:10;;;;;;;;;;;29.80;85.60;;;;;;4867658;29;20033;-84
2023/07/10 08:49:53;;;;;;;17.38;13.35;;;29.80;85.60;;;;;;4899672;29;19946;-84
2023/07/10 08:52:34;;;;;;;16.23;13.05;;;29.90;86.60;;;;;;4883631;29;20036;-84
2023/07/10 08:55:00;;;;;;;14.45;12.88;;;29.90;84.20;;;;;;4867451;29;20032;-84
2023/07/10 08:57:34;;;;;;;13.80;11.52;;;30.00;85.00;;;;;;4882702;29;20041;-84
2023/07/10 09:00:14;;;;;;;17.42;12.50;;;30.10;84.50;;;;;;4883148;29;20036;-85
2023/07/10 09:02:53;;;;;;;22.50;13.45;;;30.30;84.60;;;;;;4883177;29;20104;-86
2023/07/10 09:05:27;;;;;;;19.00;14.80;;;30.30;83.30;;;;;;4867705;29;20119;-85
2023/07/10 09:07:56;;;;;;;20.42;14.77;;;30.40;82.60;;;;;;4900082;29;20036;-85
2023/07/10 09:15:55;;;;;;;16.33;13.27;;;30.50;84.50;;;;;;5044339;23;20528;-80
2023/07/10 09:18:53;;;;;;;17.13;14.15;;;30.60;85.80;;;;;;4927227;29;20032;-80
2023/07/10 09:21:30;;;;;;;21.63;14.35;;;30.80;83.10;;;;;;4920906;29;20051;-80
2023/07/10 09:23:55;;;;;;;18.13;15.27;;;30.90;83.90;;;;;;4932510;29;20028;-80
2023/07/10 09:26:30;;;;;;;17.95;15.48;;;30.90;82.80;;;;;;4929159;23;20035;-86
2023/07/10 09:29:15;;;;;;;17.10;13.05;;;30.90;81.00;;;;;;4863272;29;20041;-86
2023/07/10 09:32:04;;;;;;;15.32;12.60;;;30.90;79.80;;;;;;4880445;29;20081;-86
2023/07/10 09:34:32;;;;;;;15.02;12.90;;;31.00;80.10;;;;;;4863258;29;20482;-85
2023/07/10 09:37:02;;;;;;;16.05;12.70;;;31.00;79.80;;;;;;4879053;29;20026;-85
2023/07/10 09:39:30;;;;;;;15.65;12.07;;;31.10;78.30;;;;;;4880358;29;20375;-85
2023/07/10 09:42:00;;;;;;;12.32;11.02;;;31.20;79.00;;;;;;4863788;29;20048;-85
2023/07/10 09:44:39;;;;;;;16.13;9.98;;;31.30;77.30;;;;;;4863765;29;20041;-85
2023/07/10 09:47:10;;;;;;;12.07;10.55;;;31.40;78.10;;;;;;4848140;29;20040;-85
2023/07/10 09:49:42;;;;;;;15.70;11.00;;;31.50;77.20;;;;;;4848469;29;20611;-85
2023/07/10 09:52:21;;;;;;;16.48;9.98;;;31.50;74.10;;;;;;4863535;29;20044;-86
2023/07/10 09:54:57;;;;;;;18.02;10.88;;;31.50;74.00;;;;;;4880230;29;20454;-86
2023/07/10 09:57:23;;;;;;;14.27;10.50;;;31.50;77.20;;;;;;4863045;29;20036;-85
2023/07/10 09:59:51;;;;;;;11.32;9.32;;;31.60;76.00;;;;;;4880432;29;20037;-86
2023/07/10 10:02:33;;;;;;;16.50;10.60;;;31.70;77.20;;;;;;4848320;29;20088;-86
2023/07/10 10:05:17;;;;;;;16.65;11.00;;;31.90;75.50;;;;;;4864225;29;20032;-86
2023/07/10 10:08:00;;;;;;;15.68;12.18;;;32.00;75.00;;;;;;4863640;29;20482;-86
2023/07/10 10:10:30;;;;;;;16.20;10.30;;;32.00;73.60;;;;;;4863629;29;20037;-87
2023/07/10 10:13:04;;;;;;;13.57;10.65;;;32.00;74.70;;;;;;4863928;29;20092;-86
2023/07/10 10:15:41;;;;;;;13.52;9.50;;;32.10;74.10;;;;;;4880394;29;20033;-86
2023/07/10 10:18:32;;;;;;;11.70;10.15;;;32.10;75.40;;;;;;4863637;29;20037;-86
2023/07/10 10:21:00;;;;;;;16.05;10.40;;;32.20;74.00;;;;;;4863600;29;20069;-85
2023/07/10 10:23:35;;;;;;;16.77;11.10;;;32.20;74.00;;;;;;4880669;29;20033;-86
2023/07/10 10:26:31;;;;;;;15.63;10.70;;;32.30;73.20;;;;;;4865554;29;20091;-86
2023/07/10 10:29:15;;;;;;;14.43;10.40;;;32.30;73.40;;;;;;4873815;29;20044;-85
2023/07/10 10:31:49;;;;;;;15.95;11.07;;;32.30;73.50;;;;;;4846258;29;20041;-86
2023/07/10 10:35:01;;;;;;;14.02;10.98;;;32.50;73.90;;;;;;4863116;29;20108;-86
2023/07/10 10:37:44;;;;;;;16.27;10.98;;;32.70;75.00;;;;;;4878855;29;20052;-85
2023/07/10 10:40:31;;;;;;;13.93;10.45;;;32.80;72.70;;;;;;4879575;29;20079;-85
2023/07/10 10:43:17;;;;;;;11.00;9.90;;;32.90;72.10;;;;;;4862263;29;20410;-85
2023/07/10 10:45:54;;;;;;;13.10;9.77;;;33.10;72.40;;;;;;4851486;29;20061;-85
2023/07/10 10:48:26;;;;;;;14.63;10.50;;;33.10;72.70;;;;;;4844818;29;20056;-85
2023/07/10 10:51:07;;;;;;;13.68;9.45;;;33.20;71.80;;;;;;4857678;29;20033;-87
2023/07/10 10:54:06;;;;;;;14.43;8.65;;;33.30;70.50;;;;;;4863775;29;20120;-85
2023/07/10 10:56:37;;;;;;;12.15;9.95;;;33.30;68.50;;;;;;4848539;29;20547;-85
2023/07/10 10:59:36;;;;;;;12.50;8.75;;;33.20;68.10;;;;;;4862695;29;20100;-86
2023/07/10 11:02:22;;;;;;;11.38;9.38;;;33.30;69.80;;;;;;4876344;29;20037;-85
2023/07/10 11:04:58;;;;;;;12.43;7.57;;;33.50;68.70;;;;;;4878667;29;20036;-85
2023/07/10 11:07:26;;;;;;;7.63;6.88;;;33.50;66.40;;;;;;4876875;29;20037;-86
2023/07/10 11:09:56;;;;;;;8.82;6.97;;;33.50;66.00;;;;;;4844294;29;20033;-86
2023/07/10 11:12:26;;;;;;;11.00;7.13;;;33.60;64.80;;;;;;4864143;29;20037;-85
2023/07/10 11:14:56;;;;;;;11.05;7.50;;;33.60;63.20;;;;;;4861752;29;20085;-85
2023/07/10 11:17:23;;;;;;;12.90;7.38;;;33.50;63.30;;;;;;4877797;29;20029;-86
2023/07/10 11:19:58;;;;;;;7.85;6.18;;;33.60;64.50;;;;;;4877884;29;20097;-86
2023/07/10 11:22:35;;;;;;;8.60;6.10;;;33.70;62.50;;;;;;4862193;29;20036;-86
2023/07/10 11:25:04;;;;;;;;;;;33.80;61.10;;;;;;4867878;29;20112;-86
2023/07/10 11:27:35;;;;;;;10.27;5.70;;;33.70;60.50;;;;;;4835351;29;1260889;-86
2023/07/10 11:30:09;;;;;;;10.25;5.05;;;33.80;59.00;;;;;;4861755;29;20037;-86
2023/07/10 11:32:55;;;;;;;8.85;5.50;;;33.90;59.50;;;;;;4859298;29;20038;-86
2023/07/10 11:35:22;;;;;;;13.20;8.10;;;33.90;58.90;;;;;;4843547;29;20110;-85
2023/07/10 11:37:48;;;;;;;12.98;7.07;;;33.80;59.00;;;;;;4860216;29;20479;-85
2023/07/10 11:40:29;;;;;;;15.07;7.50;;;33.80;59.50;;;;;;4878164;29;20069;-86
2023/07/10 11:43:00;;;;;;;10.38;6.75;;;33.90;59.00;;;;;;4873824;29;20048;-85
2023/07/10 11:45:33;;;;;;;14.68;7.45;;;34.00;59.50;;;;;;4861985;29;20033;-86
2023/07/10 11:48:00;;;;;;;12.32;8.02;;;34.20;60.80;;;;;;4878698;29;20229;-86
2023/07/10 11:50:27;;;;;;;;;;;34.30;60.80;;;;;;4862047;29;20032;-86
2023/07/10 11:53:19;;;;;;;10.65;7.45;;;34.40;60.40;;;;;;4861762;29;19979;-86
2023/07/10 11:56:01;;;;;;;10.57;7.10;;;34.50;60.20;;;;;;4860165;29;20507;-85
2023/07/10 11:58:29;;;;;;;8.40;6.53;;;34.60;60.40;;;;;;4858188;29;20487;-84
2023/07/10 12:01:15;;;;;;;9.55;6.93;;;34.60;59.60;;;;;;4877060;29;20028;-84
2023/07/10 12:03:42;;;;;;;14.60;8.05;;;34.80;60.30;;;;;;4861483;29;20510;-84
2023/07/10 12:06:20;;;;;;;14.32;8.25;;;34.90;60.50;;;;;;4878028;29;20033;-85
2023/07/10 12:08:52;;;;;;;9.90;7.53;;;35.10;59.20;;;;;;4852547;29;20053;-85
2023/07/10 12:11:46;;;;;;;12.40;7.82;;;35.10;59.70;;;;;;4853404;29;20037;-85
2023/07/10 12:14:17;;;;;;;10.05;6.88;;;35.10;58.60;;;;;;4839896;29;20061;-85
2023/07/10 12:16:51;;;;;;;14.13;7.05;;;35.10;59.70;;;;;;4867270;29;20494;-85
2023/07/10 12:19:30;;;;;;;13.55;7.43;;;35.20;59.90;;;;;;4878163;29;20490;-86
2023/07/10 12:22:00;;;;;;;18.35;7.15;;;35.50;59.90;;;;;;4861668;29;20037;-85
2023/07/10 12:24:25;;;;;;;11.50;8.38;;;35.70;61.30;;;;;;4878247;29;20498;-85
2023/07/10 12:26:54;;;;;;;14.52;8.20;;;35.80;59.30;;;;;;4877724;29;20256;-85
2023/07/10 12:29:20;;;;;;;8.32;5.90;;;35.80;59.10;;;;;;4845730;29;20037;-85
2023/07/10 12:31:46;;;;;;;11.23;6.13;;;35.80;58.00;;;;;;4861497;29;20021;-85
2023/07/10 12:34:20;;;;;;;9.40;6.55;;;35.80;58.80;;;;;;4860518;29;20061;-85
2023/07/10 12:36:50;;;;;;;6.57;5.82;;;36.00;60.40;;;;;;4873563;29;20503;-85
2023/07/10 12:39:16;;;;;;;7.38;6.50;;;36.20;59.60;;;;;;4843052;29;20057;-84
2023/07/10 12:41:46;;;;;;;10.00;6.13;;;36.30;58.60;;;;;;4843038;29;20041;-85
2023/07/10 12:44:25;;;;;;;9.43;6.32;;;36.40;57.20;;;;;;4845545;29;20037;-85
2023/07/10 12:47:06;;;;;;;10.05;5.50;;;36.50;58.30;;;;;;4842683;29;20096;-86
2023/07/10 12:49:34;;;;;;;9.57;6.20;;;36.70;58.20;;;;;;4846974;29;20040;-85
2023/07/10 12:52:04;;;;;;;8.18;5.95;;;36.70;56.90;;;;;;4860683;29;20056;-85
2023/07/10 12:55:03;;;;;;;9.40;5.68;;;36.80;56.30;;;;;;4877533;29;20029;-85
2023/07/10 12:57:32;;;;;;;12.52;6.07;;;36.90;56.30;;;;;;4874248;29;20040;-85
2023/07/10 13:00:10;;;;;;;12.70;6.38;;;37.00;55.50;;;;;;4860804;29;20056;-85
2023/07/10 13:02:50;;;;;;;9.52;6.28;;;37.00;56.30;;;;;;4877444;29;20048;-86
2023/07/10 13:05:22;;;;;;;17.52;6.03;;;37.20;53.40;;;;;;4877585;29;20033;-85
2023/07/10 13:07:51;;;;;;;9.10;6.88;;;37.10;55.20;;;;;;4860651;29;20065;-85
2023/07/10 13:10:40;;;;;;;8.07;5.78;;;37.20;55.10;;;;;;4879107;29;20089;-85
2023/07/10 13:13:15;;;;;;;9.13;5.50;;;37.40;55.50;;;;;;4863961;29;20501;-85
2023/07/10 13:15:41;;;;;;;7.25;5.38;;;37.70;55.10;;;;;;4880426;29;20025;-87
2023/07/10 13:18:38;;;;;;;8.98;6.63;;;37.80;53.60;;;;;;4880350;29;20052;-86
2023/07/10 13:21:07;;;;;;;7.65;6.05;;;38.40;51.70;;;;;;4869525;29;20112;-85
2023/07/10 13:23:33;;;;;;;13.05;5.63;;;38.80;51.80;;;;;;4880249;29;20410;-86
2023/07/10 13:25:59;;;;;;;;;;;39.70;51.60;;;;;;4881087;29;20041;-85
2023/07/10 13:28:29;;;;;;;7.97;6.80;;;40.60;48.50;;;;;;4863405;29;19930;-85
2023/07/10 13:30:54;;;;;;;9.98;6.05;;;41.40;47.90;;;;;;4848402;29;20093;-85
2023/07/10 13:33:23;;;;;;;7.65;5.88;;;42.30;46.70;;;;;;4875133;29;20022;-85
2023/07/10 13:35:55;;;;;;;7.18;6.05;;;43.00;46.20;;;;;;4829816;29;20042;-86
2023/07/10 13:38:21;;;;;;;10.00;5.63;;;43.80;45.10;;;;;;4829861;29;20044;-86
2023/07/10 13:40:47;;;;;;;8.18;5.80;;;44.60;44.50;;;;;;4877421;29;20029;-86
2023/07/10 13:43:18;;;;;;;10.43;5.50;;;45.30;43.00;;;;;;4863352;29;20033;-86
2023/07/10 13:45:45;;;;;;;6.40;5.80;;;45.70;42.70;;;;;;4863448;29;20084;-86
2023/07/10 13:48:16;;;;;;;10.27;5.72;;;45.80;40.20;;;;;;4880401;29;20029;-86
2023/07/10 13:50:44;;;;;;;9.65;5.28;;;44.80;42.40;;;;;;4863131;29;20057;-86
2023/07/10 13:53:13;;;;;;;11.32;6.28;;;44.70;40.80;;;;;;4863336;29;20073;-85
2023/07/10 13:55:40;;;;;;;8.32;5.63;;;45.30;39.80;;;;;;4863688;29;20582;-86
2023/07/10 13:58:25;;;;;;;13.57;6.40;;;45.80;40.20;;;;;;4880239;29;20025;-84
2023/07/10 14:00:55;;;;;;;9.05;5.80;;;45.80;38.40;;;;;;4887214;29;20025;-84
2023/07/10 14:03:21;;;;;;;8.77;5.70;;;45.30;39.20;;;;;;4887193;29;20038;-84
2023/07/10 14:05:50;;;;;;;18.88;6.65;;;44.90;39.10;;;;;;4886434;29;20080;-84
2023/07/10 14:08:29;;;;;;;12.75;5.32;;;45.10;39.70;;;;;;4886763;29;20043;-84
2023/07/10 14:10:57;;;;;;;9.30;5.68;;;45.70;39.10;;;;;;4886390;29;20041;-84
2023/07/10 14:13:23;;;;;;;6.75;5.55;;;45.70;39.00;;;;;;4883419;29;20041;-84
2023/07/10 14:16:00;;;;;;;5.10;4.60;;;46.20;39.30;;;;;;4874130;29;20387;-84
2023/07/10 14:18:28;;;;;;;10.48;5.03;;;46.50;40.10;;;;;;4883652;29;20029;-84
2023/07/10 14:20:54;;;;;;;9.25;6.05;;;46.50;39.00;;;;;;4862632;29;20033;-84
2023/07/10 14:23:25;;;;;;;9.52;5.47;;;46.30;38.40;;;;;;4878266;29;20044;-84
2023/07/10 14:25:52;;;;;;;7.05;5.88;;;46.40;37.90;;;;;;4863521;29;20041;-85
2023/07/10 14:28:21;;;;;;;10.70;5.97;;;44.60;38.00;;;;;;4862483;29;20045;-85
2023/07/10 14:30:47;;;;;;;11.52;5.28;;;45.80;39.70;;;;;;4863628;29;20025;-85
2023/07/10 14:33:14;;;;;;;8.90;5.38;;;46.80;39.00;;;;;;4847961;29;20399;-84
2023/07/10 14:35:41;;;;;;;9.80;5.50;;;47.90;38.00;;;;;;4882300;29;20032;-84
2023/07/10 14:38:21;;;;;;;6.10;5.50;;;48.60;36.90;;;;;;4863363;29;20044;-84
2023/07/10 14:40:48;;;;;;;19.58;5.80;;;49.30;38.60;;;;;;4863220;29;20519;-84
2023/07/10 14:43:14;;;;;;;5.50;4.85;;;49.80;36.10;;;;;;4864825;29;20029;-84
2023/07/10 14:46:03;;;;;;;18.65;5.43;;;50.00;35.30;;;;;;4880981;29;20115;-84
2023/07/10 14:48:30;;;;;;;21.20;6.38;;;50.20;36.30;;;;;;4879175;29;20129;-86
2023/07/10 14:50:57;;;;;;;8.52;5.28;;;50.30;36.40;;;;;;4869333;29;20043;-85
2023/07/10 14:53:26;;;;;;;7.97;5.50;;;50.20;35.60;;;;;;4867639;29;20483;-84
2023/07/10 14:55:53;;;;;;;15.55;6.35;;;49.40;35.30;;;;;;4850705;29;20029;-84
2023/07/10 14:58:22;;;;;;;6.82;4.90;;;47.60;35.80;;;;;;4861338;29;20021;-86
2023/07/10 15:00:49;;;;;;;5.45;4.90;;;46.20;38.10;;;;;;4862395;29;20096;-85
2023/07/10 15:03:15;;;;;;;10.27;5.53;;;45.30;39.00;;;;;;4854285;29;20138;-85
2023/07/10 15:05:54;;;;;;;15.40;5.28;;;44.70;41.20;;;;;;4843811;29;20034;-85
2023/07/10 15:08:33;;;;;;;10.27;5.20;;;44.10;41.40;;;;;;4860121;29;20034;-84
2023/07/10 15:11:00;;;;;;;9.60;5.53;;;43.80;43.10;;;;;;4843624;29;20041;-84
2023/07/10 15:13:29;;;;;;;7.05;5.22;;;43.00;42.00;;;;;;4860344;29;20041;-84
2023/07/10 15:16:00;;;;;;;8.77;5.18;;;42.80;42.90;;;;;;4871779;29;20033;-84
2023/07/10 15:18:28;;;;;;;10.13;5.45;;;42.70;43.60;;;;;;4869546;29;20104;-85
2023/07/10 15:20:54;;;;;;;10.50;5.28;;;42.40;44.90;;;;;;4878628;29;20025;-85
2023/07/10 15:23:22;;;;;;;6.57;5.30;;;42.40;45.10;;;;;;4865101;29;20088;-85
2023/07/10 15:25:50;;;;;;;7.63;5.57;;;42.30;45.30;;;;;;4897299;29;20099;-85
2023/07/10 15:28:18;;;;;;;6.93;4.93;;;42.40;44.90;;;;;;4880907;29;20060;-84
2023/07/10 15:30:49;;;;;;;6.40;4.80;;;42.20;45.00;;;;;;4880597;29;20051;-84
2023/07/10 15:33:15;;;;;;;6.97;4.88;;;42.00;45.50;;;;;;4879864;29;20533;-84
2023/07/10 15:35:41;;;;;;;7.03;4.97;;;41.90;45.80;;;;;;4864960;29;20056;-84
2023/07/10 16:42:58;;;;;;;7.63;5.90;;;39.10;48.50;;;;;;5397076;23;20045;-83
2023/07/10 16:45:30;;;;;;;10.88;5.63;;;39.00;47.90;;;;;;4887587;29;20061;-83